createdAt,value
2019-06-07T00:02:22.255Z,10.97
2019-06-07T00:04:50.098Z,11.83
2019-06-07T00:07:21.431Z,10.93
2019-06-07T00:09:47.171Z,12.87
2019-06-07T00:12:16.905Z,15.20
2019-06-07T00:14:44.433Z,12.23
2019-06-07T00:17:15.110Z,11.77
2019-06-07T00:19:41.917Z,11.83
2019-06-07T00:22:29.825Z,12.93
2019-06-07T00:24:38.976Z,15.87
2019-06-07T00:27:06.755Z,15.03
2019-06-07T00:29:34.617Z,15.13
2019-06-07T00:32:02.479Z,13.60
2019-06-07T00:34:30.349Z,12.60
2019-06-07T00:36:58.037Z,16.03
2019-06-07T00:39:26.343Z,12.27
2019-06-07T00:41:54.150Z,13.37
2019-06-07T00:44:23.422Z,15.00
2019-06-07T00:46:51.636Z,11.40
2019-06-07T00:49:37.736Z,14.47
2019-06-07T00:51:51.646Z,11.87
2019-06-07T00:54:20.290Z,11.37
2019-06-07T00:56:47.699Z,11.50
2019-06-07T00:59:18.571Z,12.47
2019-06-07T01:01:44.884Z,11.33
2019-06-07T01:04:13.112Z,13.40
2019-06-07T01:06:41.670Z,13.00
2019-06-07T01:09:09.518Z,12.77
2019-06-07T01:11:37.273Z,12.67
2019-06-07T01:14:05.661Z,13.45
2019-06-07T01:16:55.283Z,12.33
2019-06-07T01:19:02.813Z,13.27
2019-06-07T01:21:30.483Z,18.53
2019-06-07T01:24:11.567Z,21.03
2019-06-07T01:26:30.195Z,18.50
2019-06-07T01:28:56.978Z,15.70
2019-06-07T01:31:27.811Z,18.27
2019-06-07T01:33:54.129Z,18.60
2019-06-07T01:36:24.404Z,18.57
2019-06-07T01:38:51.412Z,17.23
2019-06-07T01:41:22.016Z,15.40
2019-06-07T01:43:48.370Z,15.40
2019-06-07T01:46:16.146Z,12.20
2019-06-07T01:48:49.608Z,17.33
2019-06-07T01:51:13.207Z,13.87
2019-06-07T01:53:40.982Z,12.63
2019-06-07T01:56:08.844Z,13.07
2019-06-07T01:58:36.601Z,13.73
2019-06-07T02:01:04.382Z,15.27
2019-06-07T02:03:33.204Z,17.73
2019-06-07T02:06:01.391Z,17.03
2019-06-07T02:08:34.065Z,17.00
2019-06-07T02:10:58.708Z,14.60
2019-06-07T02:13:28.899Z,15.43
2019-06-07T02:15:55.983Z,15.47
2019-06-07T02:18:26.078Z,15.70
2019-06-07T02:20:53.035Z,15.20
2019-06-07T02:23:23.116Z,13.83
2019-06-07T02:25:50.759Z,19.23
2019-06-07T02:28:30.016Z,13.43
2019-06-07T02:30:59.668Z,19.90
2019-06-07T02:33:17.618Z,35.60
2019-06-07T02:35:45.396Z,30.13
2019-06-07T02:38:13.156Z,25.83
2019-06-07T02:40:40.912Z,21.50
2019-06-07T02:43:08.742Z,17.73
2019-06-07T02:45:42.718Z,21.33
2019-06-07T02:48:05.724Z,20.80
2019-06-07T02:50:37.966Z,19.00
2019-06-07T02:53:02.933Z,19.67
2019-06-07T02:55:34.655Z,20.30
2019-06-07T02:58:00.084Z,19.53
2019-06-07T03:01:00.027Z,22.60
2019-06-07T03:03:08.319Z,20.50
2019-06-07T03:05:38.758Z,18.97
2019-06-07T03:08:07.121Z,15.00
2019-06-07T03:10:37.738Z,16.93
2019-06-07T03:13:05.821Z,16.57
2019-06-07T03:15:44.636Z,20.17
2019-06-07T03:18:05.934Z,19.70
2019-06-07T03:20:35.098Z,19.63
2019-06-07T03:23:04.913Z,16.93
2019-06-07T03:25:37.333Z,21.00
2019-06-07T03:28:06.764Z,20.07
2019-06-07T03:30:46.959Z,20.37
2019-06-07T03:33:03.933Z,26.40
2019-06-07T03:35:34.660Z,23.10
2019-06-07T03:38:01.399Z,19.27
2019-06-07T03:40:29.164Z,24.30
2019-06-07T03:42:57.045Z,20.73
2019-06-07T03:45:24.909Z,22.97
2019-06-07T03:47:52.786Z,26.20
2019-06-07T03:50:20.429Z,23.47
2019-06-07T03:52:48.218Z,21.43
2019-06-07T03:55:16.079Z,25.03
2019-06-07T03:58:30.092Z,27.33
2019-06-07T04:00:13.615Z,25.97
2019-06-07T04:02:42.240Z,28.20
2019-06-07T04:05:10.418Z,26.60
2019-06-07T04:07:43.709Z,28.10
2019-06-07T04:10:07.577Z,22.47
2019-06-07T04:12:41.277Z,24.60
2019-06-07T04:15:05.455Z,21.57
2019-06-07T04:17:34.683Z,21.90
2019-06-07T04:20:03.032Z,23.70
2019-06-07T04:22:31.543Z,25.57
2019-06-07T04:25:01.449Z,22.03
2019-06-07T04:27:30.628Z,23.83
2019-06-07T04:30:07.427Z,22.40
2019-06-07T04:32:29.795Z,24.90
2019-06-07T04:34:57.427Z,24.03
2019-06-07T04:37:26.734Z,22.03
2019-06-07T04:39:54.699Z,22.10
2019-06-07T04:42:22.771Z,20.03
2019-06-07T04:44:51.376Z,21.03
2019-06-07T04:47:19.314Z,23.97
2019-06-07T04:49:48.429Z,20.87
2019-06-07T04:52:16.202Z,23.70
2019-06-07T04:54:45.871Z,24.17
2019-06-07T04:57:13.360Z,26.27
2019-06-07T05:00:11.213Z,27.47
2019-06-07T05:02:10.539Z,23.37
2019-06-07T05:04:39.825Z,21.50
2019-06-07T05:07:07.913Z,22.57
2019-06-07T05:09:38.939Z,21.70
2019-06-07T05:12:05.605Z,22.37
2019-06-07T05:14:34.579Z,24.23
2019-06-07T05:17:02.765Z,21.30
2019-06-07T05:19:31.210Z,24.50
2019-06-07T05:22:04.769Z,24.00
2019-06-07T05:24:30.722Z,23.87
2019-06-07T05:26:58.724Z,22.17
2019-06-07T05:29:26.397Z,25.57
2019-06-07T05:31:54.477Z,23.00
2019-06-07T05:34:22.232Z,25.30
2019-06-07T05:37:10.499Z,25.30
2019-06-07T05:39:19.213Z,26.77
2019-06-07T05:41:47.055Z,24.97
2019-06-07T05:44:15.158Z,23.40
2019-06-07T05:46:46.652Z,26.33
2019-06-07T05:49:12.503Z,23.30
2019-06-07T05:51:43.281Z,24.90
2019-06-07T05:54:09.689Z,26.23
2019-06-07T05:56:39.407Z,25.90
2019-06-07T05:59:06.811Z,28.23
2019-06-07T06:01:44.931Z,25.53
2019-06-07T06:04:04.246Z,23.27
2019-06-07T06:06:31.999Z,25.27
2019-06-07T06:09:13.413Z,23.27
2019-06-07T06:11:43.380Z,23.60
2019-06-07T06:14:07.294Z,23.20
2019-06-07T06:16:27.990Z,26.80
2019-06-07T06:18:55.854Z,28.80
2019-06-07T06:21:23.624Z,27.23
2019-06-07T06:23:52.296Z,24.03
2019-06-07T06:26:20.887Z,32.57
2019-06-07T06:28:49.726Z,32.93
2019-06-07T06:31:17.958Z,30.50
2019-06-07T06:33:47.546Z,27.53
2019-06-07T06:36:15.263Z,27.57
2019-06-07T06:38:43.872Z,24.50
2019-06-07T06:41:16.252Z,28.37
2019-06-07T06:43:46.371Z,27.33
2019-06-07T06:46:11.310Z,24.77
2019-06-07T06:48:40.770Z,28.17
2019-06-07T06:51:08.685Z,23.13
2019-06-07T06:53:36.441Z,25.80
2019-06-07T06:56:04.317Z,25.87
2019-06-07T06:59:18.493Z,28.43
2019-06-07T07:01:06.683Z,27.00
2019-06-07T07:03:56.776Z,26.20
2019-06-07T07:06:24.722Z,22.17
2019-06-07T07:08:29.900Z,24.63
2019-06-07T07:10:57.788Z,26.27
2019-06-07T07:13:25.643Z,24.10
2019-06-07T07:15:57.996Z,27.80
2019-06-07T07:18:22.922Z,25.70
2019-06-07T07:20:55.699Z,22.33
2019-06-07T07:23:20.272Z,18.87
2019-06-07T07:25:55.393Z,19.90
2019-06-07T07:28:17.440Z,17.80
2019-06-07T07:30:47.395Z,18.00
2019-06-07T07:33:16.290Z,24.57
2019-06-07T07:36:09.490Z,24.53
2019-06-07T07:38:13.855Z,20.40
2019-06-07T07:41:01.650Z,28.57
2019-06-07T07:43:11.350Z,21.13
2019-06-07T07:45:39.509Z,25.10
2019-06-07T07:48:15.633Z,25.83
2019-06-07T07:50:36.981Z,25.50
2019-06-07T07:53:04.845Z,28.57
2019-06-07T07:55:32.670Z,31.00
2019-06-07T07:58:01.933Z,30.07
2019-06-07T08:00:52.417Z,27.50
2019-06-07T08:03:04.126Z,21.70
2019-06-07T08:05:42.617Z,24.17
2019-06-07T08:08:01.564Z,25.00
2019-06-07T08:10:28.116Z,27.73
2019-06-07T08:13:19.547Z,23.43
2019-06-07T08:15:25.177Z,26.00
2019-06-07T08:17:58.090Z,21.70
2019-06-07T08:20:22.130Z,28.00
2019-06-07T08:22:50.074Z,25.73
2019-06-07T08:25:17.997Z,29.17
2019-06-07T08:27:46.988Z,23.40
2019-06-07T08:30:46.949Z,25.30
2019-06-07T08:32:44.940Z,26.67
2019-06-07T08:35:57.212Z,25.77
2019-06-07T08:38:14.650Z,25.67
2019-06-07T08:40:11.958Z,24.93
2019-06-07T08:42:59.859Z,29.57
2019-06-07T08:45:09.842Z,26.20
2019-06-07T08:47:37.621Z,26.00
2019-06-07T08:50:09.162Z,23.37
2019-06-07T08:52:37.030Z,25.90
2019-06-07T08:55:05.424Z,23.50
2019-06-07T08:57:33.172Z,21.73
2019-06-07T09:00:16.153Z,23.90
2019-06-07T09:02:30.247Z,21.87
2019-06-07T09:05:02.801Z,21.03
2019-06-07T09:07:27.454Z,23.50
2019-06-07T09:10:03.596Z,21.40
2019-06-07T09:12:24.690Z,26.50
2019-06-07T09:15:09.370Z,18.90
2019-06-07T09:17:21.775Z,23.57
2019-06-07T09:19:49.423Z,23.37
2019-06-07T09:22:17.388Z,24.53
2019-06-07T09:24:45.136Z,23.80
2019-06-07T09:27:13.286Z,21.00
2019-06-07T09:29:41.090Z,22.53
2019-06-07T09:32:11.985Z,22.97
2019-06-07T09:34:38.481Z,28.10
2019-06-07T09:37:54.713Z,22.03
2019-06-07T09:39:35.812Z,22.80
2019-06-07T09:42:09.419Z,21.40
2019-06-07T09:44:32.891Z,18.47
2019-06-07T09:47:20.243Z,22.63
2019-06-07T09:49:32.711Z,19.57
2019-06-07T09:52:02.206Z,21.77
2019-06-07T09:55:03.823Z,26.87
2019-06-07T09:57:00.338Z,29.30
2019-06-07T09:59:28.283Z,28.33
2019-06-07T10:01:59.127Z,23.93
2019-06-07T10:04:31.294Z,29.47
2019-06-07T10:06:54.894Z,32.83
2019-06-07T10:11:52.671Z,41.17
2019-06-07T10:14:20.452Z,32.93
2019-06-07T10:16:48.739Z,32.20
2019-06-07T10:19:16.808Z,30.03
2019-06-07T10:21:44.426Z,39.90
2019-06-07T10:24:12.213Z,30.00
2019-06-07T10:26:39.973Z,31.17
2019-06-07T10:29:09.111Z,31.80
2019-06-07T10:31:37.266Z,35.87
2019-06-07T10:34:06.566Z,31.10
2019-06-07T10:36:34.322Z,31.03
2019-06-07T10:39:02.893Z,33.90
2019-06-07T10:41:30.756Z,29.97
2019-06-07T10:43:58.537Z,27.90
2019-06-07T10:46:26.413Z,29.70
2019-06-07T10:48:54.250Z,31.27
2019-06-07T10:51:22.669Z,29.90
2019-06-07T10:53:52.062Z,32.20
2019-06-07T10:56:19.829Z,31.03
2019-06-07T10:58:47.602Z,21.83
2019-06-07T11:01:15.674Z,22.17
2019-06-07T11:03:43.579Z,24.83
2019-06-07T11:06:12.168Z,22.13
2019-06-07T11:08:40.198Z,23.20
2019-06-07T11:11:08.008Z,24.40
2019-06-07T11:13:35.822Z,26.70
2019-06-07T11:16:04.702Z,26.73
2019-06-07T11:18:32.707Z,22.63
2019-06-07T11:21:00.439Z,25.73
2019-06-07T11:23:28.216Z,25.30
2019-06-07T11:25:56.085Z,22.27
2019-06-07T11:28:24.058Z,25.73
2019-06-07T11:30:51.817Z,23.83
2019-06-07T11:33:19.581Z,24.63
2019-06-07T11:35:47.353Z,26.33
2019-06-07T11:38:15.118Z,24.43
2019-06-07T11:40:42.992Z,21.40
2019-06-07T11:43:10.843Z,18.10
2019-06-07T11:45:38.717Z,20.73
2019-06-07T11:48:07.161Z,21.33
2019-06-07T11:50:35.567Z,22.50
2019-06-07T11:53:03.353Z,18.00
2019-06-07T11:55:31.130Z,17.13
2019-06-07T11:57:58.991Z,17.53
2019-06-07T12:00:26.859Z,20.03
2019-06-07T12:02:54.713Z,22.57
2019-06-07T12:05:22.590Z,19.27
2019-06-07T12:07:50.344Z,17.50
2019-06-07T12:10:22.696Z,18.57
2019-06-07T12:12:47.611Z,17.37
2019-06-07T12:15:16.954Z,15.87
2019-06-07T12:17:45.179Z,23.57
2019-06-07T12:20:14.849Z,14.60
2019-06-07T12:22:42.390Z,14.37
2019-06-07T12:25:10.492Z,15.33
2019-06-07T12:27:38.507Z,18.70
2019-06-07T12:30:13.420Z,16.10
2019-06-07T12:32:38.996Z,13.20
2019-06-07T12:35:07.663Z,13.93
2019-06-07T12:37:43.968Z,13.40
2019-06-07T12:40:08.945Z,14.35
2019-06-07T12:42:36.889Z,12.97
2019-06-07T12:45:06.195Z,13.77
2019-06-07T12:47:34.070Z,16.10
2019-06-07T12:50:02.036Z,15.20
2019-06-07T12:52:29.810Z,18.57
2019-06-07T12:54:57.674Z,15.73
2019-06-07T12:57:25.428Z,19.50
2019-06-07T12:59:53.080Z,18.93
2019-06-07T13:02:22.133Z,15.43
2019-06-07T13:04:50.252Z,19.97
2019-06-07T13:07:19.958Z,17.97
2019-06-07T13:09:47.542Z,14.93
2019-06-07T13:12:15.532Z,17.37
2019-06-07T13:14:43.590Z,20.07
2019-06-07T13:17:11.770Z,19.47
2019-06-07T13:19:39.524Z,20.23
2019-06-07T13:22:07.397Z,26.90
2019-06-07T13:24:35.158Z,19.20
2019-06-07T13:27:02.791Z,17.77
2019-06-07T13:29:32.329Z,18.63
2019-06-07T13:31:59.889Z,28.13
2019-06-07T13:34:28.130Z,16.67
2019-06-07T13:36:55.932Z,18.03
2019-06-07T13:39:26.471Z,16.73
2019-06-07T13:41:53.114Z,20.93
2019-06-07T13:44:21.002Z,23.57
2019-06-07T13:46:48.845Z,19.57
2019-06-07T13:49:17.359Z,20.63
2019-06-07T13:51:45.190Z,13.13
2019-06-07T13:54:13.064Z,15.87
2019-06-07T13:57:00.822Z,16.20
2019-06-07T13:59:10.238Z,19.53
2019-06-07T14:01:38.097Z,19.03
2019-06-07T14:04:05.986Z,19.13
2019-06-07T14:06:33.934Z,18.17
2019-06-07T14:09:01.696Z,18.67
2019-06-07T14:11:30.083Z,18.40
2019-06-07T14:13:58.865Z,14.10
2019-06-07T14:16:26.641Z,17.73
2019-06-07T14:18:54.817Z,19.37
2019-06-07T14:21:22.609Z,14.07
2019-06-07T14:23:50.455Z,15.57
2019-06-07T14:26:18.244Z,18.87
2019-06-07T14:28:45.936Z,16.17
2019-06-07T14:31:13.678Z,15.53
2019-06-07T14:33:41.697Z,15.87
2019-06-07T14:36:10.099Z,17.70
2019-06-07T14:38:38.492Z,14.70
2019-06-07T14:41:06.247Z,13.27
2019-06-07T14:43:34.170Z,16.87
2019-06-07T14:46:01.864Z,14.47
2019-06-07T14:48:30.386Z,15.63
2019-06-07T14:50:58.535Z,19.17
2019-06-07T14:53:26.652Z,15.53
2019-06-07T14:55:54.586Z,15.77
2019-06-07T14:58:22.549Z,16.23
2019-06-07T15:00:50.516Z,15.10
2019-06-07T15:03:18.391Z,17.60
2019-06-07T15:05:46.163Z,22.30
2019-06-07T15:08:13.916Z,16.00
2019-06-07T15:10:41.782Z,18.40
2019-06-07T15:13:09.611Z,15.50
2019-06-07T15:15:38.801Z,16.10
2019-06-07T15:18:06.810Z,15.43
2019-06-07T15:20:36.288Z,13.53
2019-06-07T15:23:03.998Z,13.33
2019-06-07T15:25:33.123Z,14.20
2019-06-07T15:28:01.166Z,15.90
2019-06-07T15:30:29.607Z,15.27
2019-06-07T15:32:59.620Z,19.70
2019-06-07T15:35:28.005Z,14.90
2019-06-07T15:37:55.904Z,13.87
2019-06-07T15:40:23.615Z,15.63
2019-06-07T15:42:53.104Z,14.10
2019-06-07T15:45:20.863Z,14.17
2019-06-07T15:47:48.716Z,16.03
2019-06-07T15:50:16.691Z,11.13
2019-06-07T15:52:44.374Z,15.60
2019-06-07T15:55:12.628Z,17.77
2019-06-07T15:57:41.910Z,12.03
2019-06-07T16:00:11.330Z,13.40
2019-06-07T16:02:39.723Z,14.17
2019-06-07T16:05:07.582Z,11.60
2019-06-07T16:07:36.230Z,13.47
2019-06-07T16:10:05.669Z,11.20
2019-06-07T16:12:34.556Z,11.57
2019-06-07T16:15:02.546Z,11.50
2019-06-07T16:17:30.306Z,13.33
2019-06-07T16:19:59.189Z,13.53
2019-06-07T16:22:26.956Z,11.23
2019-06-07T16:24:55.028Z,14.07
2019-06-07T16:27:22.779Z,10.60
2019-06-07T16:29:50.668Z,12.87
2019-06-07T16:32:18.395Z,12.50
2019-06-07T16:34:46.135Z,17.00
2019-06-07T16:37:13.872Z,16.10
2019-06-07T16:39:42.280Z,12.97
2019-06-07T16:42:09.995Z,11.07
2019-06-07T16:44:38.739Z,12.90
2019-06-07T16:47:06.672Z,12.73
2019-06-07T16:49:34.427Z,11.73
2019-06-07T16:52:02.336Z,13.27
2019-06-07T16:54:30.148Z,11.63
2019-06-07T16:56:58.032Z,11.90
2019-06-07T16:59:25.884Z,11.90
2019-06-07T17:01:53.669Z,13.40
2019-06-07T17:04:21.447Z,13.70
2019-06-07T17:06:49.299Z,12.03
2019-06-07T17:09:17.169Z,14.17
2019-06-07T17:11:46.300Z,11.77
2019-06-07T17:14:14.537Z,11.53
2019-06-07T17:16:43.222Z,13.97
2019-06-07T17:19:11.722Z,17.33
2019-06-07T17:21:39.486Z,16.60
2019-06-07T17:24:07.658Z,24.80
2019-06-07T17:26:35.631Z,18.37
2019-06-07T17:29:03.371Z,21.23
2019-06-07T17:31:31.057Z,35.67
2019-06-07T17:33:58.925Z,33.77
2019-06-07T17:36:26.616Z,14.27
2019-06-07T17:38:54.350Z,12.50
2019-06-07T17:41:22.126Z,12.37
2019-06-07T17:43:58.506Z,13.10
2019-06-07T17:46:19.298Z,19.63
2019-06-07T17:48:47.587Z,13.80
2019-06-07T17:51:15.291Z,15.33
2019-06-07T17:53:43.890Z,19.43
2019-06-07T17:56:11.888Z,12.97
2019-06-07T17:58:39.511Z,14.70
2019-06-07T18:01:07.295Z,13.77
2019-06-07T18:03:35.179Z,18.80
2019-06-07T18:06:03.466Z,28.80
2019-06-07T18:08:31.245Z,19.93
2019-06-07T18:10:59.194Z,20.70
2019-06-07T18:13:26.967Z,16.00
2019-06-07T18:15:59.291Z,11.63
2019-06-07T18:18:24.233Z,14.77
2019-06-07T18:20:53.364Z,14.27
2019-06-07T18:23:21.489Z,14.97
2019-06-07T18:25:50.457Z,15.03
2019-06-07T18:28:18.573Z,15.83
2019-06-07T18:30:46.572Z,21.90
2019-06-07T18:33:14.307Z,20.10
2019-06-07T18:35:42.063Z,23.67
2019-06-07T18:38:10.901Z,25.87
2019-06-07T18:40:39.149Z,21.97
2019-06-07T18:43:06.926Z,19.07
2019-06-07T18:45:34.621Z,25.27
2019-06-07T18:48:02.296Z,16.30
2019-06-07T18:50:30.103Z,14.80
2019-06-07T18:52:59.040Z,16.10
2019-06-07T18:55:26.861Z,16.13
2019-06-07T18:57:54.550Z,18.30
2019-06-07T19:00:23.106Z,13.60
2019-06-07T19:02:51.869Z,19.03
2019-06-07T19:05:20.190Z,14.00
2019-06-07T19:07:48.366Z,18.20
2019-06-07T19:10:16.628Z,19.13
2019-06-07T19:12:44.501Z,17.37
2019-06-07T19:15:13.493Z,16.60
2019-06-07T19:17:41.169Z,21.40
2019-06-07T19:20:09.095Z,23.13
2019-06-07T19:22:37.407Z,19.80
2019-06-07T19:25:05.835Z,16.93
2019-06-07T19:27:33.551Z,22.67
2019-06-07T19:30:01.404Z,17.30
2019-06-07T19:32:29.197Z,16.30
2019-06-07T19:34:57.501Z,15.77
2019-06-07T19:37:25.541Z,20.90
2019-06-07T19:39:53.807Z,25.70
2019-06-07T19:42:21.580Z,18.93
2019-06-07T19:44:54.358Z,19.43
2019-06-07T19:47:19.056Z,19.70
2019-06-07T19:49:46.925Z,20.73
2019-06-07T19:52:14.685Z,20.57
2019-06-07T19:54:42.788Z,24.50
2019-06-07T19:57:10.745Z,20.73
2019-06-07T19:59:38.726Z,23.70
2019-06-07T20:02:06.577Z,26.67
2019-06-07T20:04:34.338Z,25.90
2019-06-07T20:07:03.971Z,20.17
2019-06-07T20:09:31.509Z,19.87
2019-06-07T20:12:00.659Z,25.43
2019-06-07T20:14:28.940Z,27.97
2019-06-07T20:16:57.141Z,29.87
2019-06-07T20:19:25.233Z,30.30
2019-06-07T20:21:53.270Z,28.90
2019-06-07T20:24:26.995Z,31.93
2019-06-07T20:26:50.477Z,29.00
2019-06-07T20:29:25.781Z,24.17
2019-06-07T20:31:47.858Z,28.63
2019-06-07T20:34:15.556Z,29.23
2019-06-07T20:36:45.832Z,27.97
2019-06-07T20:39:12.516Z,27.10
2019-06-07T20:41:40.465Z,34.57
2019-06-07T20:44:08.179Z,31.70
2019-06-07T20:46:35.990Z,32.00
2019-06-07T20:49:04.940Z,26.50
2019-06-07T20:51:33.459Z,25.43
2019-06-07T20:54:02.450Z,25.97
2019-06-07T20:56:30.192Z,27.87
2019-06-07T20:58:58.512Z,29.50
2019-06-07T21:01:26.223Z,34.37
2019-06-07T21:03:54.033Z,28.60
2019-06-07T21:06:21.754Z,29.67
2019-06-07T21:08:49.459Z,28.50
2019-06-07T21:11:17.331Z,29.73
2019-06-07T21:13:45.301Z,29.70
2019-06-07T21:16:12.959Z,38.97
2019-06-07T21:18:40.721Z,31.17
2019-06-07T21:21:08.604Z,29.37
2019-06-07T21:23:36.359Z,30.67
2019-06-07T21:26:04.762Z,29.30
2019-06-07T21:28:34.562Z,27.97
2019-06-07T21:31:03.476Z,30.73
2019-06-07T21:33:31.416Z,35.13
2019-06-07T21:35:59.180Z,29.17
2019-06-07T21:38:26.940Z,33.93
2019-06-07T21:40:55.122Z,35.17
2019-06-07T21:43:22.716Z,24.90
2019-06-07T21:46:04.407Z,33.30
2019-06-07T21:48:20.169Z,34.23
2019-06-07T21:50:47.915Z,32.50
2019-06-07T21:53:15.796Z,29.10
2019-06-07T21:55:43.670Z,32.83
2019-06-07T21:58:11.536Z,28.43
2019-06-07T22:00:56.612Z,31.07
2019-06-07T22:03:24.574Z,28.67
2019-06-07T22:05:52.323Z,30.73
2019-06-07T22:08:20.309Z,32.40
2019-06-07T22:10:48.184Z,30.10
2019-06-07T22:13:16.052Z,31.87
2019-06-07T22:15:44.020Z,30.23
2019-06-07T22:18:12.879Z,32.13
2019-06-07T22:20:40.879Z,28.13
2019-06-07T22:23:08.649Z,31.20
2019-06-07T22:25:36.295Z,29.10
2019-06-07T22:28:04.115Z,29.80
2019-06-07T22:30:31.850Z,28.00
2019-06-07T22:32:59.766Z,30.77
2019-06-07T22:35:27.780Z,31.27
2019-06-07T22:37:55.547Z,28.50
2019-06-07T22:40:23.408Z,28.47
2019-06-07T22:42:51.393Z,29.40
2019-06-07T22:45:19.254Z,28.53
2019-06-07T22:47:46.917Z,30.40
2019-06-07T22:50:16.352Z,25.30
2019-06-07T22:52:44.400Z,29.00
2019-06-07T22:55:13.834Z,24.77
2019-06-07T22:57:59.900Z,28.53
2019-06-07T23:00:32.374Z,25.70
2019-06-07T23:03:00.026Z,25.93
2019-06-07T23:05:28.312Z,30.57
2019-06-07T23:07:56.083Z,31.27
2019-06-07T23:10:23.953Z,26.47
2019-06-07T23:12:51.825Z,24.73
2019-06-07T23:15:20.809Z,28.67
2019-06-07T23:17:48.790Z,26.20
2019-06-07T23:20:18.034Z,27.97
2019-06-07T23:22:45.848Z,24.70
2019-06-07T23:25:17.649Z,29.27
2019-06-07T23:27:43.120Z,36.00
2019-06-07T23:30:12.318Z,27.63
2019-06-07T23:32:40.081Z,26.47
2019-06-07T23:35:07.962Z,28.37
2019-06-07T23:37:35.826Z,32.80
2019-06-07T23:40:03.792Z,29.37
2019-06-07T23:42:31.660Z,30.33
2019-06-07T23:44:59.432Z,32.50
2019-06-07T23:47:27.294Z,30.63
2019-06-07T23:49:55.000Z,28.40
2019-06-07T23:52:22.834Z,27.67
2019-06-07T23:54:50.498Z,30.07
2019-06-07T23:57:19.553Z,33.37
2019-06-07T23:59:47.762Z,29.27
